Boulevard, New York
Current Conditions -  °F | °C
As of 6:51 PM on Friday 28 Nov 2014 (Local Time) from KLGA Reporting Station
Few Clouds Few Clouds  
Wind Chill: 22°   Ceiling: Unl
Heat Index: 31°   Visibility: 10mi
Dew Point: 15°   Wind: 10mph
Humidity: 52%   Direction: 310°NW
Pressure: 30.25"   Gusts: NA
Location:  40.8106°N, 73.8845°W
Report Text: KLGA 282351Z 31009KT 10SM FEW250 M01/M09 A3025 RMK AO2 SLP242 T10061094 10028 21006 51021
Loading
Personal Weather Stations






























Interactive Weather Map New forecast layout! Learn more

10-Day Weather Forecast

Advertisements
Track Severe Weather on mobile